Time;durP1;ratioP1;P1;durP2;ratioP2;P2;SDS_P1;SDS_P2;PMS_P1;PMS_P2;Temp;Humidity;BMP_temperature;BMP_pressure;BME280_temperature;BME280_humidity;BME280_pressure;Samples;Min_cycle;Max_cycle;Signal;HPM_P1;HPM_P2
2021/04/03 00:04:11;;;;;;;3.65;1.40;;;;;;;9.58;41.88;100793.94;10316972;28;20053;-62
2021/04/03 00:09:12;;;;;;;2.88;1.65;;;;;;;9.71;41.44;100793.00;10338098;28;20054;-61
2021/04/03 00:14:13;;;;;;;2.72;1.42;;;;;;;9.53;41.62;100794.25;10335706;28;20053;-58
2021/04/03 00:19:14;;;;;;;4.05;1.70;;;;;;;9.43;42.50;100798.47;10333713;28;20046;-60
2021/04/03 00:24:15;;;;;;;4.03;2.58;;;;;;;9.62;42.19;100795.44;10325594;28;20073;-60
2021/04/03 00:29:16;;;;;;;3.22;1.75;;;;;;;9.36;41.97;100779.44;10332602;28;20052;-58
2021/04/03 00:34:17;;;;;;;3.20;1.50;;;;;;;8.85;43.88;100773.00;10337358;28;20114;-58
2021/04/03 00:39:18;;;;;;;3.50;1.70;;;;;;;9.32;43.09;100786.78;10334365;28;20584;-61
2021/04/03 00:44:19;;;;;;;3.13;1.70;;;;;;;9.49;42.41;100782.13;10333463;28;20100;-60
2021/04/03 00:49:20;;;;;;;3.63;1.75;;;;;;;9.54;42.58;100775.53;10334439;28;20081;-59
2021/04/03 00:54:21;;;;;;;4.53;2.40;;;;;;;9.07;43.18;100770.75;10315815;28;20049;-59
2021/04/03 00:59:22;;;;;;;5.88;1.90;;;;;;;9.28;43.39;100779.13;10335048;28;20571;-58
2021/04/03 01:04:23;;;;;;;3.85;2.03;;;;;;;9.07;44.17;100771.59;10334372;28;20132;-61
2021/04/03 01:09:25;;;;;;;5.22;2.10;;;;;;;9.07;44.20;100776.91;10332053;28;20070;-58
2021/04/03 01:14:36;;;;;;;3.53;1.80;;;;;;;9.12;44.12;100766.84;10333221;28;20054;-59
2021/04/03 01:20:09;;;;;;;3.85;2.10;;;;;;;9.22;44.17;100782.16;10329416;28;20046;-60
2021/04/03 01:25:36;;;;;;;4.68;2.40;;;;;;;9.27;44.14;100772.94;10333666;28;20046;-62
2021/04/03 01:30:42;;;;;;;4.20;1.77;;;;;;;9.32;43.88;100769.97;10327744;28;20129;-61
2021/04/03 01:35:48;;;;;;;2.58;1.90;;;;;;;9.37;44.24;100778.50;10321548;28;20066;-59
2021/04/03 01:40:52;;;;;;;3.13;2.65;;;;;;;9.40;43.91;100783.59;10329570;28;20577;-60
2021/04/03 01:45:55;;;;;;;4.13;2.13;;;;;;;9.50;44.35;100783.81;10329856;28;20077;-60
2021/04/03 01:50:56;;;;;;;4.95;2.20;;;;;;;9.53;44.17;100796.91;10319714;28;20220;-61
2021/04/03 01:55:58;;;;;;;2.83;2.00;;;;;;;9.10;44.95;100790.00;10331713;28;20217;-59
2021/04/03 02:01:00;;;;;;;5.80;2.60;;;;;;;9.16;45.20;100789.59;10326813;28;20485;-64
2021/04/03 02:06:05;;;;;;;4.45;2.30;;;;;;;9.17;45.65;100785.13;10336667;28;20050;-59
2021/04/03 02:11:07;;;;;;;4.60;2.85;;;;;;;9.23;45.73;100787.38;10331486;28;20042;-58
2021/04/03 02:16:08;;;;;;;3.75;2.53;;;;;;;9.24;45.49;100785.56;10329730;28;20648;-60
2021/04/03 02:21:10;;;;;;;4.97;2.92;;;;;;;9.27;45.77;100793.34;10333785;28;20053;-63
2021/04/03 02:26:11;;;;;;;5.45;3.00;;;;;;;9.26;45.99;100784.50;10342365;28;20045;-59
2021/04/03 02:31:11;;;;;;;4.32;2.22;;;;;;;9.17;45.91;100777.16;10341170;28;20268;-60
2021/04/03 02:36:12;;;;;;;4.63;2.55;;;;;;;9.10;46.24;100791.81;10345123;28;20045;-60
2021/04/03 02:41:17;;;;;;;5.70;2.53;;;;;;;9.07;46.31;100798.16;10336341;28;20601;-60
2021/04/03 02:46:41;;;;;;;5.68;3.13;;;;;;;8.84;47.03;100792.56;10341812;28;20105;-59
2021/04/03 02:51:46;;;;;;;5.50;2.45;;;;;;;8.81;46.86;100792.75;10336567;28;20487;-60
2021/04/03 02:56:48;;;;;;;5.30;2.92;;;;;;;8.69;47.54;100798.81;10338111;28;20116;-59
2021/04/03 03:01:53;;;;;;;4.95;2.67;;;;;;;8.59;48.02;100792.44;10339428;28;20503;-60
2021/04/03 03:06:55;;;;;;;5.00;2.88;;;;;;;8.60;47.98;100794.09;10336655;28;20458;-60
2021/04/03 03:11:59;;;;;;;5.95;2.97;;;;;;;8.47;48.51;100800.19;10337383;28;20046;-60
2021/04/03 03:17:00;;;;;;;6.72;3.08;;;;;;;8.34;49.01;100804.53;10337909;28;20158;-59
2021/04/03 03:22:01;;;;;;;6.25;3.30;;;;;;;8.25;49.67;100797.16;10340369;28;20443;-60
2021/04/03 03:27:04;;;;;;;4.63;2.72;;;;;;;8.32;49.90;100814.41;10338506;28;20045;-59
2021/04/03 03:32:06;;;;;;;4.03;2.72;;;;;;;8.40;49.71;100813.91;10335481;28;20065;-59
2021/04/03 03:37:09;;;;;;;3.72;2.53;;;;;;;8.44;49.91;100821.63;10324459;28;20669;-59
2021/04/03 03:42:11;;;;;;;5.57;3.00;;;;;;;8.34;49.90;100820.44;10326853;28;20057;-59
2021/04/03 03:47:12;;;;;;;5.90;2.65;;;;;;;8.37;49.91;100814.94;10339061;28;20116;-59
2021/04/03 03:52:13;;;;;;;3.78;2.60;;;;;;;8.31;49.89;100821.47;10339555;28;20156;-59
2021/04/03 03:57:15;;;;;;;4.78;2.78;;;;;;;8.35;49.85;100827.47;10339179;28;20772;-60
2021/04/03 04:02:16;;;;;;;4.18;2.88;;;;;;;8.47;49.56;100833.84;10331742;28;20045;-59
2021/04/03 04:07:17;;;;;;;4.55;2.63;;;;;;;8.47;49.29;100836.50;10322883;28;20138;-59
2021/04/03 04:12:17;;;;;;;4.25;2.45;;;;;;;8.30;49.36;100819.81;10334214;28;20434;-58
2021/04/03 04:17:19;;;;;;;4.78;2.60;;;;;;;8.11;50.40;100835.97;10338731;28;20396;-60
2021/04/03 04:22:20;;;;;;;4.55;2.63;;;;;;;8.10;50.72;100844.88;10340255;28;20212;-60
2021/04/03 04:27:21;;;;;;;3.60;2.38;;;;;;;8.00;50.84;100843.75;10333848;28;20104;-58
2021/04/03 04:32:22;;;;;;;5.65;3.10;;;;;;;8.00;50.86;100859.66;10338545;28;20049;-60
2021/04/03 04:37:23;;;;;;;6.22;2.72;;;;;;;7.98;51.02;100880.09;10338114;28;20046;-59
2021/04/03 04:42:24;;;;;;;5.75;2.90;;;;;;;8.12;50.99;100884.56;10336936;28;20100;-59
2021/04/03 04:47:25;;;;;;;5.00;2.72;;;;;;;8.21;50.70;100893.75;10331159;28;20632;-59
2021/04/03 04:52:27;;;;;;;6.35;3.50;;;;;;;8.23;50.54;100894.53;10334809;28;20061;-59
2021/04/03 04:57:28;;;;;;;5.10;3.20;;;;;;;8.19;50.55;100885.91;10333474;28;20076;-59
2021/04/03 05:02:29;;;;;;;5.50;2.88;;;;;;;8.26;50.76;100903.16;10329973;28;20053;-59
2021/04/03 05:07:30;;;;;;;5.60;2.85;;;;;;;8.27;50.34;100910.16;10331608;28;20046;-59
2021/04/03 05:12:31;;;;;;;5.10;2.65;;;;;;;8.27;50.42;100911.94;10334227;28;20406;-60
2021/04/03 05:17:32;;;;;;;4.35;3.03;;;;;;;8.24;50.35;100912.13;10332217;28;20521;-58
2021/04/03 05:22:33;;;;;;;5.13;2.90;;;;;;;8.18;50.70;100925.78;10335998;28;20125;-64
2021/04/03 05:27:34;;;;;;;4.05;2.90;;;;;;;8.20;50.02;100918.59;10334717;28;20046;-59
2021/04/03 05:32:35;;;;;;;6.20;2.78;;;;;;;8.17;50.02;100921.41;10333792;28;20085;-58
2021/04/03 05:37:36;;;;;;;7.38;3.08;;;;;;;8.19;49.87;100923.03;10331820;28;20069;-61
2021/04/03 05:42:38;;;;;;;6.97;3.00;;;;;;;8.23;50.16;100934.31;10333506;28;20049;-62
2021/04/03 05:47:39;;;;;;;8.25;3.63;;;;;;;8.26;50.22;100936.78;10334002;28;20097;-58
2021/04/03 05:52:41;;;;;;;8.40;2.65;;;;;;;8.14;50.29;100936.56;10331328;28;20116;-60
2021/04/03 05:57:42;;;;;;;4.18;2.35;;;;;;;8.08;50.57;100939.59;10324723;28;20132;-62
2021/04/03 06:02:43;;;;;;;6.40;2.83;;;;;;;8.04;50.77;100946.00;10309563;28;20060;-62
2021/04/03 06:07:44;;;;;;;7.03;3.15;;;;;;;8.09;50.43;100943.94;10319460;28;20050;-62
2021/04/03 06:12:49;;;;;;;6.07;3.03;;;;;;;8.20;50.49;100966.34;10322232;28;20054;-59
2021/04/03 06:17:57;;;;;;;5.53;3.03;;;;;;;8.39;50.33;100971.38;10321268;28;20054;-58
2021/04/03 06:22:58;;;;;;;5.53;3.05;;;;;;;8.59;49.72;100978.19;10319966;28;20498;-59
2021/04/03 06:28:09;;;;;;;8.77;2.97;;;;;;;8.71;49.46;100981.88;10320904;28;20054;-61
2021/04/03 06:33:18;;;;;;;7.90;2.92;;;;;;;8.95;48.66;100979.53;10320518;28;20136;-58
2021/04/03 06:38:24;;;;;;;6.63;3.00;;;;;;;8.70;48.91;100975.72;10321015;28;20108;-60
2021/04/03 06:43:25;;;;;;;7.47;2.83;;;;;;;9.09;48.04;100979.50;10319966;28;20054;-58
2021/04/03 06:48:27;;;;;;;8.18;2.83;;;;;;;9.09;47.87;100998.09;10304417;28;20042;-62
2021/04/03 06:53:28;;;;;;;6.35;2.95;;;;;;;9.25;47.59;100995.34;10316713;28;20050;-58
2021/04/03 06:58:31;;;;;;;6.63;2.80;;;;;;;9.38;47.23;100998.06;10298630;28;20469;-60
2021/04/03 07:03:34;;;;;;;6.32;2.65;;;;;;;9.50;47.03;101007.94;10317662;28;20579;-62
2021/04/03 07:08:37;;;;;;;6.70;2.35;;;;;;;9.23;47.70;101014.97;10315468;28;20045;-58
2021/04/03 07:13:39;;;;;;;5.75;2.65;;;;;;;8.90;48.34;101002.84;10317960;28;20061;-61
2021/04/03 07:18:41;;;;;;;7.63;2.20;;;;;;;9.35;46.06;100990.28;10318278;28;20053;-59
2021/04/03 07:23:42;;;;;;;8.45;2.15;;;;;;;9.32;44.97;101014.38;10318226;28;20054;-61
2021/04/03 07:28:44;;;;;;;6.80;2.30;;;;;;;9.46;45.02;101017.03;10300177;28;20133;-62
2021/04/03 07:33:49;;;;;;;7.25;2.30;;;;;;;9.84;44.19;101021.69;10315429;28;20562;-60
2021/04/03 07:38:50;;;;;;;;;;;;;;;9.96;43.12;101019.19;10308645;28;20134;-61
2021/04/03 07:43:51;;;;;;;7.60;2.40;;;;;;;9.36;43.72;101019.41;10301745;28;19932;-59
2021/04/03 07:49:00;;;;;;;7.75;2.35;;;;;;;9.87;43.05;101012.66;10314413;28;20050;-61
2021/04/03 07:54:03;;;;;;;7.90;2.47;;;;;;;10.33;41.70;101022.94;10318556;28;20423;-57
2021/04/03 07:59:04;;;;;;;6.65;2.25;;;;;;;10.35;42.20;101031.66;10302522;28;20050;-60
2021/04/03 08:04:25;;;;;;;7.18;2.67;;;;;;;10.48;42.29;101036.16;10318835;28;20543;-59
2021/04/03 08:09:31;;;;;;;8.93;2.33;;;;;;;11.03;41.48;101031.50;10317999;28;20147;-60
2021/04/03 08:14:34;;;;;;;6.30;2.60;;;;;;;10.68;42.00;101042.81;10314496;28;20537;-59
2021/04/03 08:19:38;;;;;;;5.90;2.00;;;;;;;11.28;41.36;101044.81;10314612;28;20136;-61
2021/04/03 08:24:39;;;;;;;4.15;2.00;;;;;;;11.57;40.55;101044.53;10297979;28;20168;-61
2021/04/03 08:29:41;;;;;;;4.00;2.58;;;;;;;11.88;39.28;101044.97;10298534;28;20159;-61
2021/04/03 08:34:42;;;;;;;6.82;2.60;;;;;;;12.29;39.09;101054.41;10316083;28;20056;-59
2021/04/03 08:39:43;;;;;;;4.40;2.25;;;;;;;12.24;39.23;101053.91;10310268;28;20053;-59
2021/04/03 08:44:44;;;;;;;6.95;2.60;;;;;;;12.41;38.33;101057.97;10312920;28;21181;-58
2021/04/03 08:49:45;;;;;;;7.47;2.63;;;;;;;11.94;39.86;101065.91;10312117;28;20724;-58
2021/04/03 08:54:46;;;;;;;5.18;2.47;;;;;;;12.24;39.22;101066.44;10299063;28;20121;-58
2021/04/03 08:59:48;;;;;;;8.15;2.20;;;;;;;13.04;37.54;101065.66;10314174;28;20499;-61
2021/04/03 09:04:49;;;;;;;9.15;2.83;;;;;;;13.50;35.82;101066.59;10314357;28;20065;-61
2021/04/03 09:10:06;;;;;;;8.50;2.95;;;;;;;13.73;35.77;101081.59;10313590;28;20101;-60
2021/04/03 09:15:08;;;;;;;8.85;3.33;;;;;;;13.99;35.00;101077.78;10294366;28;20059;-60
2021/04/03 09:20:13;;;;;;;6.50;2.70;;;;;;;14.43;34.82;101076.78;10312699;28;20284;-61
2021/04/03 09:25:29;;;;;;;8.43;2.80;;;;;;;14.46;34.61;101075.69;10308456;28;20156;-61
2021/04/03 09:30:33;;;;;;;5.50;2.60;;;;;;;14.11;34.83;101077.66;10296182;28;20197;-60
2021/04/03 09:35:34;;;;;;;7.50;2.80;;;;;;;15.01;33.44;101078.19;10321293;28;20056;-59
2021/04/03 09:40:38;;;;;;;5.95;2.92;;;;;;;15.50;33.20;101079.28;10316537;28;20058;-62
2021/04/03 09:45:40;;;;;;;5.03;2.90;;;;;;;15.38;32.44;101080.38;10314223;28;20081;-61
2021/04/03 09:50:41;;;;;;;7.20;2.75;;;;;;;15.59;33.21;101071.41;10313907;28;20053;-61
2021/04/03 09:55:42;;;;;;;7.45;3.08;;;;;;;16.63;30.78;101062.94;10313890;28;20053;-59
2021/04/03 10:00:43;;;;;;;8.00;3.00;;;;;;;16.58;30.08;101050.75;10315301;28;20046;-61
2021/04/03 10:05:44;;;;;;;5.90;2.45;;;;;;;16.60;30.88;101064.94;10297723;28;20073;-62
2021/04/03 10:10:45;;;;;;;8.27;2.72;;;;;;;17.33;29.08;101070.72;10314262;28;20058;-58
2021/04/03 10:15:46;;;;;;;6.95;2.67;;;;;;;18.34;28.05;101071.53;10315182;28;20042;-59
2021/04/03 10:20:48;;;;;;;4.38;1.95;;;;;;;22.43;21.88;101061.44;10300923;28;20060;-62
2021/04/03 10:25:49;;;;;;;5.68;2.25;;;;;;;25.36;18.94;101054.19;10315294;28;20061;-60
2021/04/03 10:30:51;;;;;;;5.10;2.13;;;;;;;26.26;16.78;101052.16;10296455;28;20077;-60
2021/04/03 10:35:52;;;;;;;7.15;2.03;;;;;;;23.75;19.96;101051.88;10332400;28;21042;-61
2021/04/03 10:40:52;;;;;;;6.10;1.65;;;;;;;23.04;20.04;101047.78;10327907;28;20057;-62
2021/04/03 10:45:53;;;;;;;3.95;2.45;;;;;;;23.20;19.76;101057.66;10321933;28;20127;-60
2021/04/03 10:50:54;;;;;;;4.13;1.95;;;;;;;27.80;16.85;101037.41;10316869;28;20628;-61
2021/04/03 10:55:56;;;;;;;5.45;2.45;;;;;;;30.95;12.95;101046.41;10337914;28;20062;-63
2021/04/03 11:00:57;;;;;;;4.63;2.10;;;;;;;33.15;11.30;101025.91;10343391;28;20515;-60
2021/04/03 11:05:58;;;;;;;4.68;1.60;;;;;;;34.00;10.33;101028.25;10352350;28;20483;-61
2021/04/03 11:10:59;;;;;;;7.22;2.53;;;;;;;34.61;10.19;101027.97;10341225;28;20300;-62
2021/04/03 11:16:00;;;;;;;5.55;2.40;;;;;;;36.40;8.90;101020.56;10340674;28;20058;-64
2021/04/03 11:21:01;;;;;;;5.82;2.20;;;;;;;35.97;8.81;101017.22;10349417;28;20065;-63
2021/04/03 11:26:02;;;;;;;4.18;1.40;;;;;;;35.85;8.66;101021.09;10344525;28;20049;-62
2021/04/03 11:31:03;;;;;;;4.13;1.65;;;;;;;36.71;8.06;101014.97;10351127;28;20132;-63
2021/04/03 11:36:04;;;;;;;4.80;1.80;;;;;;;35.55;9.16;101011.59;10342648;28;20053;-61
2021/04/03 11:41:05;;;;;;;5.07;1.50;;;;;;;38.06;7.88;101005.75;10352246;28;20053;-62
2021/04/03 11:46:07;;;;;;;3.85;1.10;;;;;;;39.02;6.50;101005.06;10344363;28;20224;-59
2021/04/03 11:51:08;;;;;;;2.42;0.82;;;;;;;38.55;6.39;101001.13;10339118;28;20140;-59
2021/04/03 11:56:09;;;;;;;2.20;0.77;;;;;;;35.27;7.81;100978.81;10326974;28;20667;-59
2021/04/03 12:01:10;;;;;;;2.47;0.98;;;;;;;32.63;9.80;100999.50;10345241;28;20156;-63
2021/04/03 12:06:11;;;;;;;3.47;0.93;;;;;;;33.19;8.93;101002.22;10329576;28;20368;-62
2021/04/03 12:11:12;;;;;;;2.20;0.63;;;;;;;37.68;6.77;100986.84;10346253;28;20054;-63
2021/04/03 12:16:13;;;;;;;3.80;1.15;;;;;;;30.36;10.50;100985.94;10342376;28;20120;-62
2021/04/03 12:21:13;;;;;;;1.60;0.40;;;;;;;34.76;6.96;100984.94;10345071;28;20053;-59
2021/04/03 12:26:14;;;;;;;2.42;0.80;;;;;;;33.71;8.08;100987.09;10332194;28;20046;-60
2021/04/03 12:31:15;;;;;;;;;;;;;;;27.56;12.09;100978.84;10341299;28;20482;-61
2021/04/03 12:36:17;;;;;;;5.27;1.40;;;;;;;27.77;12.19;100978.50;10341851;28;19922;-60
2021/04/03 12:41:18;;;;;;;5.07;1.25;;;;;;;25.96;14.61;100975.31;10341023;28;20080;-62
2021/04/03 12:46:19;;;;;;;4.90;1.37;;;;;;;29.78;12.06;100974.56;10331397;28;20562;-59
2021/04/03 12:51:20;;;;;;;4.47;1.35;;;;;;;33.13;9.21;100979.28;10334863;28;20431;-64
2021/04/03 12:56:21;;;;;;;4.05;1.27;;;;;;;31.80;9.08;100967.03;10343572;28;20045;-60
2021/04/03 13:01:22;;;;;;;2.88;1.00;;;;;;;30.88;10.21;100960.47;10350486;28;20045;-61
2021/04/03 13:06:24;;;;;;;2.90;1.02;;;;;;;27.51;13.20;100965.84;10342060;28;20046;-61
2021/04/03 13:11:25;;;;;;;2.75;1.42;;;;;;;25.99;14.59;100969.47;10341647;28;20049;-62
2021/04/03 13:16:26;;;;;;;;;;;;;;;25.64;14.49;100955.97;10336008;28;20499;-60
2021/04/03 13:21:26;;;;;;;3.17;1.40;;;;;;;24.32;16.02;100958.56;10341973;28;19952;-60
2021/04/03 13:26:27;;;;;;;2.97;0.90;;;;;;;23.26;16.67;100964.56;10341878;28;20052;-60
2021/04/03 13:31:28;;;;;;;4.00;1.52;;;;;;;;;;10332051;28;20100;-60
2021/04/03 13:36:29;;;;;;;5.07;1.45;;;;;;;21.41;18.76;100956.72;10332933;28;20069;-59
2021/04/03 13:41:30;;;;;;;2.35;1.20;;;;;;;21.56;19.01;100939.72;10335550;28;20060;-61
2021/04/03 13:46:31;;;;;;;4.28;1.52;;;;;;;20.77;19.82;100941.41;10337021;28;20096;-61
2021/04/03 13:51:32;;;;;;;5.18;2.35;;;;;;;19.71;20.58;100940.44;10341168;28;20058;-60
2021/04/03 13:56:33;;;;;;;3.30;1.33;;;;;;;19.86;20.16;100945.19;10313645;28;20042;-60
2021/04/03 14:01:34;;;;;;;2.75;1.55;;;;;;;19.97;20.03;100934.06;10340040;28;20472;-60
2021/04/03 14:06:35;;;;;;;3.35;1.55;;;;;;;19.82;19.91;100946.56;10324482;28;20058;-60
2021/04/03 14:11:36;;;;;;;2.15;1.08;;;;;;;19.64;19.31;100934.00;10333853;28;20046;-59
2021/04/03 14:16:37;;;;;;;3.22;1.38;;;;;;;19.00;19.87;100942.56;10324054;28;20046;-59
2021/04/03 14:21:38;;;;;;;2.05;0.93;;;;;;;18.65;20.39;100933.63;10326169;28;20124;-61
2021/04/03 14:26:39;;;;;;;2.90;0.90;;;;;;;18.07;20.78;100918.06;10353297;28;20133;-60
2021/04/03 14:31:41;;;;;;;4.45;1.75;;;;;;;17.96;21.32;100925.38;10339636;28;20058;-59
2021/04/03 14:36:42;;;;;;;2.80;1.33;;;;;;;17.50;21.91;100927.28;10308778;28;20054;-59
2021/04/03 14:41:43;;;;;;;2.85;1.27;;;;;;;17.30;22.02;100916.63;10337377;28;20085;-60
2021/04/03 14:46:44;;;;;;;3.58;1.30;;;;;;;17.04;23.43;100923.72;10328006;28;20057;-59
2021/04/03 14:51:45;;;;;;;2.30;1.35;;;;;;;17.39;22.35;100919.44;10330326;28;20050;-61
2021/04/03 14:56:46;;;;;;;3.33;1.40;;;;;;;16.96;21.52;100911.03;10321429;28;20050;-60
2021/04/03 15:01:47;;;;;;;2.58;1.70;;;;;;;16.37;22.71;100903.16;10305184;28;20057;-60
2021/04/03 15:06:48;;;;;;;4.05;2.03;;;;;;;16.15;22.84;100893.56;10324626;28;20196;-60
2021/04/03 15:11:50;;;;;;;3.53;1.27;;;;;;;16.17;23.09;100905.03;10322984;28;20660;-59
2021/04/03 15:16:51;;;;;;;3.25;1.08;;;;;;;15.88;22.92;100894.31;10321211;28;20128;-62
2021/04/03 15:21:52;;;;;;;2.08;1.20;;;;;;;16.23;22.47;100890.19;10322708;28;21617;-63
2021/04/03 15:26:53;;;;;;;3.47;1.55;;;;;;;16.23;23.40;100895.56;10322338;28;20068;-62
2021/04/03 15:31:54;;;;;;;3.35;0.95;;;;;;;16.60;22.98;100900.09;10323279;28;20064;-61
2021/04/03 15:36:55;;;;;;;5.90;1.98;;;;;;;16.52;22.64;100900.84;10322213;28;20050;-62
2021/04/03 15:41:57;;;;;;;3.35;2.78;;;;;;;16.31;22.48;100897.53;10322047;28;20482;-63
2021/04/03 15:46:58;;;;;;;4.25;1.80;;;;;;;16.26;22.36;100896.13;10321831;28;20086;-62
2021/04/03 15:51:59;;;;;;;3.17;1.45;;;;;;;15.83;22.43;100894.75;10319702;28;20215;-60
2021/04/03 15:57:01;;;;;;;3.40;1.40;;;;;;;15.65;22.76;100885.69;10319735;28;20049;-61
2021/04/03 16:02:03;;;;;;;2.38;1.45;;;;;;;15.33;23.67;100886.81;10319284;28;20050;-62
2021/04/03 16:07:04;;;;;;;5.28;1.65;;;;;;;15.35;23.85;100874.94;10318240;28;20062;-61
2021/04/03 16:12:06;;;;;;;7.40;2.90;;;;;;;15.38;23.90;100893.44;10318632;28;20133;-61
2021/04/03 16:17:07;;;;;;;2.83;1.80;;;;;;;15.23;23.40;100880.59;10319289;28;20058;-60
2021/04/03 16:22:08;;;;;;;3.00;1.55;;;;;;;15.40;23.28;100885.25;10318807;28;20132;-59
2021/04/03 16:27:09;;;;;;;3.25;1.85;;;;;;;15.34;23.68;100883.13;10320996;28;20128;-60
2021/04/03 16:32:10;;;;;;;3.08;1.60;;;;;;;14.94;24.33;100887.56;10317075;28;20465;-62
2021/04/03 16:37:11;;;;;;;4.07;1.65;;;;;;;14.79;23.90;100879.06;10301678;28;20196;-59
2021/04/03 16:42:12;;;;;;;3.28;1.45;;;;;;;14.76;23.27;100884.69;10301684;28;20805;-62
2021/04/03 16:47:14;;;;;;;4.88;2.70;;;;;;;14.84;23.84;100889.38;10316765;28;20058;-62
2021/04/03 16:52:15;;;;;;;5.32;2.58;;;;;;;14.66;24.80;100895.34;10317383;28;20474;-62
2021/04/03 16:57:16;;;;;;;2.65;2.00;;;;;;;14.64;25.71;100905.38;10318292;28;20060;-62
2021/04/03 17:02:17;;;;;;;4.00;2.30;;;;;;;14.58;25.79;100894.31;10322738;28;20101;-59
2021/04/03 17:07:18;;;;;;;3.83;1.90;;;;;;;14.58;25.76;100894.31;10320118;28;20124;-61
2021/04/03 17:12:19;;;;;;;5.28;2.08;;;;;;;14.33;25.93;100907.13;10318948;28;20136;-62
2021/04/03 17:17:20;;;;;;;8.35;4.63;;;;;;;14.15;26.38;100902.38;10302308;28;20557;-62
2021/04/03 17:22:21;;;;;;;4.40;2.30;;;;;;;13.90;25.77;100892.94;10319212;28;20053;-62
2021/04/03 17:27:22;;;;;;;2.58;1.45;;;;;;;13.66;26.25;100901.19;10317392;28;20510;-61
2021/04/03 17:32:23;;;;;;;4.72;2.03;;;;;;;13.60;26.66;100905.22;10317751;28;20054;-63
2021/04/03 17:37:24;;;;;;;2.53;1.35;;;;;;;13.54;26.78;100902.19;10301482;28;20049;-59
2021/04/03 17:42:25;;;;;;;3.95;1.75;;;;;;;13.51;26.61;100903.31;10309156;28;20050;-59
2021/04/03 17:47:26;;;;;;;4.90;1.73;;;;;;;13.46;26.99;100907.31;10319121;28;20112;-62
2021/04/03 17:52:27;;;;;;;5.10;1.80;;;;;;;13.34;27.60;100914.53;10317637;28;20502;-61
2021/04/03 17:57:28;;;;;;;4.35;1.70;;;;;;;13.30;28.10;100921.94;10315745;28;20045;-64
2021/04/03 18:02:29;;;;;;;5.57;1.67;;;;;;;13.23;28.41;100920.72;10315310;28;20266;-63
2021/04/03 18:07:30;;;;;;;4.22;1.73;;;;;;;13.27;28.57;100917.69;10316677;28;20057;-62
2021/04/03 18:12:31;;;;;;;10.02;7.53;;;;;;;13.21;28.52;100925.31;10318209;28;20272;-61
2021/04/03 18:17:34;;;;;;;15.55;10.32;;;;;;;13.18;29.47;100929.13;10316311;28;20786;-63
2021/04/03 18:22:39;;;;;;;7.82;5.75;;;;;;;13.07;29.30;100937.97;10317146;28;20046;-64
2021/04/03 18:27:42;;;;;;;6.72;4.60;;;;;;;13.01;29.62;100945.66;10314115;28;20515;-61
2021/04/03 18:32:47;;;;;;;3.95;2.60;;;;;;;12.90;29.47;100951.84;10296943;28;20061;-60
2021/04/03 18:37:48;;;;;;;4.68;2.67;;;;;;;12.73;30.06;100947.84;10315696;28;20054;-62
2021/04/03 18:42:54;;;;;;;9.25;6.90;;;;;;;12.65;29.92;100967.13;10300334;28;20053;-62
2021/04/03 18:47:55;;;;;;;4.63;3.53;;;;;;;12.58;30.16;100965.91;10319040;28;20244;-62
2021/04/03 18:52:57;;;;;;;6.65;4.47;;;;;;;12.50;30.92;100960.31;10315010;28;20133;-63
2021/04/03 18:57:58;;;;;;;4.45;3.20;;;;;;;12.47;30.69;100965.88;10317057;28;20060;-59
2021/04/03 19:02:59;;;;;;;4.50;2.95;;;;;;;12.27;30.47;100965.59;10319911;28;20081;-60
2021/04/03 19:08:01;;;;;;;4.28;2.55;;;;;;;12.17;30.53;100980.59;10321893;28;21520;-59
2021/04/03 19:13:02;;;;;;;5.05;3.55;;;;;;;12.00;31.04;100974.72;10320464;28;20141;-60
2021/04/03 19:18:04;;;;;;;6.75;4.60;;;;;;;11.93;31.73;100984.16;10323557;28;20065;-60
2021/04/03 19:23:05;;;;;;;7.50;4.93;;;;;;;11.84;31.66;100984.81;10322762;28;20137;-62
2021/04/03 19:28:08;;;;;;;7.47;3.28;;;;;;;11.66;32.27;100971.88;10319907;28;20050;-60
2021/04/03 19:33:09;;;;;;;6.15;3.13;;;;;;;11.55;32.38;100974.47;10319380;28;20140;-59
2021/04/03 19:38:10;;;;;;;7.75;3.55;;;;;;;11.47;32.85;100977.72;10304420;28;20411;-59
2021/04/03 19:43:11;;;;;;;4.93;3.30;;;;;;;11.44;33.14;100987.72;10319393;28;20054;-61
2021/04/03 19:48:12;;;;;;;4.78;2.75;;;;;;;11.39;33.06;100984.56;10319883;28;20450;-62
2021/04/03 19:53:13;;;;;;;5.55;3.05;;;;;;;11.34;33.10;100976.06;10318742;28;20069;-60
2021/04/03 19:58:14;;;;;;;5.70;3.28;;;;;;;11.22;33.50;100978.63;10319166;28;20054;-62
2021/04/03 20:03:15;;;;;;;7.35;3.70;;;;;;;11.22;33.59;100975.13;10320327;28;20050;-62
2021/04/03 20:08:16;;;;;;;5.55;3.88;;;;;;;11.22;33.60;100977.78;10320310;28;20189;-60
2021/04/03 20:13:17;;;;;;;5.32;3.67;;;;;;;11.15;34.04;100996.00;10318849;28;20069;-60
2021/04/03 20:18:18;;;;;;;5.93;3.70;;;;;;;11.16;34.01;100997.72;10318960;28;20542;-62
2021/04/03 20:23:19;;;;;;;8.18;4.65;;;;;;;11.11;34.96;100991.88;10318993;28;20084;-62
2021/04/03 20:28:20;;;;;;;6.22;4.35;;;;;;;11.02;34.74;100989.84;10318250;28;20064;-63
2021/04/03 20:33:21;;;;;;;6.22;3.78;;;;;;;10.95;34.80;100992.09;10317091;28;20507;-61
2021/04/03 20:38:22;;;;;;;7.78;3.72;;;;;;;10.91;34.78;100994.13;10318572;28;20050;-62
2021/04/03 20:43:23;;;;;;;5.97;3.63;;;;;;;10.89;34.97;100993.38;10330644;28;20211;-61
2021/04/03 20:48:25;;;;;;;6.00;4.88;;;;;;;10.86;35.13;100998.91;10328738;28;20054;-63
2021/04/03 20:53:25;;;;;;;8.95;4.32;;;;;;;10.49;35.30;100996.13;10332264;28;20499;-61
2021/04/03 20:58:27;;;;;;;8.63;5.25;;;;;;;10.01;36.64;100990.47;10332396;28;20053;-61
2021/04/03 21:03:28;;;;;;;6.90;4.68;;;;;;;10.43;35.86;100993.88;10336529;28;20058;-59
2021/04/03 21:08:30;;;;;;;8.35;4.60;;;;;;;10.12;36.62;100989.75;10331782;28;20050;-61
2021/04/03 21:13:31;;;;;;;7.68;4.97;;;;;;;10.00;37.11;100997.59;10309946;28;20069;-62
2021/04/03 21:18:32;;;;;;;8.25;5.35;;;;;;;9.98;37.24;101007.47;10329910;28;20049;-60
2021/04/03 21:23:33;;;;;;;7.55;4.38;;;;;;;10.04;36.20;101001.78;10327883;28;20053;-59
2021/04/03 21:28:34;;;;;;;5.50;4.43;;;;;;;9.73;37.54;100992.28;10328713;28;20046;-60
2021/04/03 21:33:35;;;;;;;7.53;4.90;;;;;;;10.02;36.87;100997.50;10335028;28;20061;-60
2021/04/03 21:38:37;;;;;;;7.85;5.10;;;;;;;10.12;36.23;101000.38;10334372;28;20053;-59
2021/04/03 21:43:38;;;;;;;8.07;4.95;;;;;;;10.11;36.36;101010.19;10331720;28;20133;-60
2021/04/03 21:48:39;;;;;;;5.88;4.43;;;;;;;10.05;36.30;101002.63;10332849;28;20506;-59
2021/04/03 21:53:40;;;;;;;7.55;5.57;;;;;;;9.99;36.63;101008.34;10324007;28;20052;-62
2021/04/03 21:58:41;;;;;;;8.85;5.45;;;;;;;9.96;36.56;101003.22;10332836;28;20046;-61
2021/04/03 22:03:42;;;;;;;6.88;5.05;;;;;;;9.96;36.69;101003.22;10330236;28;20049;-60
2021/04/03 22:08:43;;;;;;;9.60;5.68;;;;;;;9.85;36.93;100998.63;10330520;28;20073;-64
2021/04/03 22:13:44;;;;;;;6.25;5.18;;;;;;;9.84;37.12;101012.88;10331438;28;20058;-60
2021/04/03 22:18:44;;;;;;;8.27;5.45;;;;;;;9.84;37.46;101012.88;10327298;28;20053;-60
2021/04/03 22:23:46;;;;;;;6.38;5.20;;;;;;;9.91;37.04;101007.03;10327401;28;20056;-59
2021/04/03 22:28:49;;;;;;;8.23;5.97;;;;;;;9.81;36.95;101000.59;10319395;28;20041;-60
2021/04/03 22:33:51;;;;;;;10.07;5.72;;;;;;;9.77;37.11;100999.09;10326124;28;20093;-60
2021/04/03 22:38:52;;;;;;;7.60;5.25;;;;;;;9.75;37.84;100990.38;10331820;28;20112;-61
2021/04/03 22:43:53;;;;;;;7.43;4.00;;;;;;;9.82;37.67;100990.84;10338107;28;20100;-58
2021/04/03 22:48:54;;;;;;;6.65;4.55;;;;;;;10.01;37.87;100990.47;10338598;28;20112;-59
2021/04/03 22:53:54;;;;;;;7.20;4.43;;;;;;;10.00;37.74;101000.25;10341508;28;20057;-59
2021/04/03 22:58:55;;;;;;;6.15;4.68;;;;;;;9.87;37.63;101000.19;10340379;28;22806;-60
2021/04/03 23:03:56;;;;;;;5.78;4.15;;;;;;;9.87;37.97;100989.56;10341047;28;20058;-60
2021/04/03 23:08:58;;;;;;;6.88;4.30;;;;;;;9.93;38.24;100996.28;10342753;28;20478;-59
2021/04/03 23:13:59;;;;;;;6.20;4.88;;;;;;;9.88;38.37;100991.28;10328150;28;20387;-60
2021/04/03 23:19:00;;;;;;;10.32;5.05;;;;;;;9.88;38.59;100985.97;10327540;28;20480;-61